Time;durP1;ratioP1;P1;durP2;ratioP2;P2;SDS_P1;SDS_P2;PMS_P1;PMS_P2;Temp;Humidity;BMP_temperature;BMP_pressure;BME280_temperature;BME280_humidity;BME280_pressure;Samples;Min_cycle;Max_cycle;Signal;HPM_P1;HPM_P2
2022/03/09 00:00:21;;;;;;;12.73;6.50;;;-3.60;87.90;;;;;;4970828;28;20031;-89
2022/03/09 00:02:47;;;;;;;14.93;7.00;;;-3.70;88.80;;;;;;4971483;28;20085;-82
2022/03/09 00:05:12;;;;;;;19.73;8.57;;;-3.70;89.30;;;;;;4974075;28;20038;-81
2022/03/09 00:07:38;;;;;;;23.15;8.35;;;-3.60;89.40;;;;;;4971183;28;20038;-87
2022/03/09 00:10:05;;;;;;;18.23;7.00;;;-3.60;88.80;;;;;;4970641;28;20031;-86
2022/03/09 00:12:31;;;;;;;17.95;7.15;;;-3.60;88.40;;;;;;4985283;28;20062;-88
2022/03/09 00:14:57;;;;;;;16.15;7.45;;;-3.70;89.40;;;;;;4969420;28;20500;-90
2022/03/09 00:17:23;;;;;;;18.15;6.68;;;-3.80;89.60;;;;;;4971040;28;20382;-88
2022/03/09 00:19:49;;;;;;;20.23;7.50;;;-3.80;90.40;;;;;;4969958;28;20031;-87
2022/03/09 00:22:15;;;;;;;18.35;8.43;;;-3.80;90.60;;;;;;4963687;28;20035;-88
2022/03/09 00:24:41;;;;;;;16.38;6.45;;;-3.80;90.30;;;;;;4970938;28;20023;-90
2022/03/09 00:27:07;;;;;;;14.90;7.00;;;-3.70;90.10;;;;;;4985844;28;20038;-89
2022/03/09 00:29:33;;;;;;;12.70;7.60;;;-3.60;89.70;;;;;;4956037;28;20035;-87
2022/03/09 00:31:59;;;;;;;17.10;7.63;;;-3.50;89.90;;;;;;4971434;28;20165;-87
2022/03/09 00:34:24;;;;;;;14.43;7.78;;;-3.40;89.30;;;;;;4972791;28;20247;-88
2022/03/09 00:36:50;;;;;;;17.10;6.75;;;-3.50;88.10;;;;;;4971798;28;20081;-88
2022/03/09 00:39:16;;;;;;;18.35;8.75;;;-3.70;88.40;;;;;;4954653;28;20035;-86
2022/03/09 00:41:41;;;;;;;14.90;7.30;;;-3.80;90.90;;;;;;4939450;28;20031;-87
2022/03/09 00:44:08;;;;;;;19.63;7.10;;;-4.00;90.70;;;;;;4971078;28;20066;-89
2022/03/09 00:46:34;;;;;;;17.92;9.20;;;-4.10;90.80;;;;;;4973988;28;20054;-90
2022/03/09 00:49:00;;;;;;;16.00;7.32;;;-4.20;91.70;;;;;;4958293;28;20449;-87
2022/03/09 00:51:26;;;;;;;20.35;7.90;;;-4.30;91.00;;;;;;4968876;28;20031;-87
2022/03/09 00:53:52;;;;;;;17.27;7.80;;;-4.10;92.30;;;;;;4954053;28;20059;-89
2022/03/09 00:56:18;;;;;;;17.65;8.00;;;-4.10;92.10;;;;;;4985718;28;20043;-88
2022/03/09 00:58:44;;;;;;;15.30;6.90;;;-4.10;92.20;;;;;;4971807;28;20382;-86
2022/03/09 01:01:10;;;;;;;17.10;7.72;;;-4.20;91.50;;;;;;4987364;28;20037;-89
2022/03/09 01:03:36;;;;;;;18.25;6.75;;;-4.30;92.00;;;;;;5006541;28;20081;-88
2022/03/09 01:06:02;;;;;;;21.08;8.00;;;-4.40;93.10;;;;;;5008401;28;20034;-88
2022/03/09 01:08:28;;;;;;;19.67;8.00;;;-4.50;93.00;;;;;;4992442;28;20053;-88
2022/03/09 01:10:54;;;;;;;16.38;8.00;;;-4.40;92.50;;;;;;5000585;28;20026;-89
2022/03/09 01:13:21;;;;;;;17.17;8.20;;;-4.60;92.30;;;;;;4976065;28;20436;-88
2022/03/09 01:15:48;;;;;;;14.68;7.32;;;-4.50;93.10;;;;;;5006918;28;20393;-88
2022/03/09 01:18:14;;;;;;;16.33;7.20;;;-4.50;93.60;;;;;;5009817;28;20532;-88
2022/03/09 01:20:40;;;;;;;23.23;8.30;;;-4.60;94.60;;;;;;4996448;28;20034;-88
2022/03/09 01:23:05;;;;;;;17.95;7.68;;;-4.60;94.30;;;;;;5005232;28;20149;-91
2022/03/09 01:25:31;;;;;;;13.95;7.00;;;-4.50;93.40;;;;;;5008769;28;20493;-89
2022/03/09 01:27:57;;;;;;;19.27;9.38;;;-4.60;93.20;;;;;;5004187;28;20050;-89
2022/03/09 01:30:23;;;;;;;16.23;6.78;;;-4.50;93.90;;;;;;5012435;28;20032;-86
2022/03/09 01:32:48;;;;;;;18.25;8.05;;;-4.40;92.70;;;;;;4990898;28;20045;-90
2022/03/09 01:35:15;;;;;;;19.38;8.00;;;-4.40;93.00;;;;;;4963547;28;20073;-87
2022/03/09 01:37:40;;;;;;;16.17;7.25;;;-4.50;92.30;;;;;;4993475;28;20057;-89
2022/03/09 01:40:07;;;;;;;14.23;6.57;;;-4.70;93.50;;;;;;4992118;28;20490;-88
2022/03/09 01:42:33;;;;;;;16.70;7.97;;;-4.70;95.00;;;;;;4993155;28;20512;-89
2022/03/09 01:45:04;;;;;;;25.13;8.23;;;-4.60;94.30;;;;;;4992397;28;20058;-89
2022/03/09 01:47:29;;;;;;;17.35;7.68;;;-4.70;93.20;;;;;;4992124;28;20122;-89
2022/03/09 01:49:55;;;;;;;16.83;7.63;;;-4.70;93.80;;;;;;5008036;28;20090;-86
2022/03/09 01:52:21;;;;;;;17.27;6.72;;;-4.60;94.00;;;;;;4991675;28;20045;-89
2022/03/09 01:54:46;;;;;;;13.55;6.32;;;-4.60;94.40;;;;;;5007768;28;20026;-87
2022/03/09 01:57:12;;;;;;;16.92;7.53;;;-4.50;94.50;;;;;;4993099;28;20075;-88
2022/03/09 01:59:38;;;;;;;15.30;6.82;;;-4.50;93.80;;;;;;5012783;28;20065;-87
2022/03/09 02:02:03;;;;;;;19.42;7.30;;;-4.60;93.30;;;;;;4987052;28;20088;-89
2022/03/09 02:04:29;;;;;;;20.15;7.40;;;-4.60;94.50;;;;;;4956359;28;1152493;-88
2022/03/09 02:06:55;;;;;;;18.65;7.43;;;-4.60;94.00;;;;;;4980113;28;20062;-87
2022/03/09 02:12:05;;;;;;;15.23;6.88;;;-4.90;95.40;;;;;;4993487;28;20049;-87
2022/03/09 02:14:39;;;;;;;16.50;7.30;;;-4.90;96.00;;;;;;4976063;28;20108;-89
2022/03/09 02:17:19;;;;;;;15.13;7.00;;;-4.60;94.70;;;;;;4993013;28;20410;-86
2022/03/09 02:19:47;;;;;;;15.68;7.15;;;-4.60;93.90;;;;;;4992759;28;20022;-88
2022/03/09 02:22:34;;;;;;;14.90;6.38;;;-4.60;93.90;;;;;;4992165;28;20030;-87
2022/03/09 02:25:01;;;;;;;18.42;8.43;;;-4.60;93.20;;;;;;4994170;28;20386;-88
2022/03/09 02:27:27;;;;;;;17.35;8.32;;;-4.90;94.60;;;;;;5010216;28;20034;-87
2022/03/09 02:29:54;;;;;;;13.07;5.47;;;-4.90;94.80;;;;;;5029080;28;20496;-90
2022/03/09 02:32:21;;;;;;;14.13;6.75;;;-4.60;95.00;;;;;;4964639;28;20038;-83
2022/03/09 02:34:47;;;;;;;13.93;6.57;;;-4.50;94.40;;;;;;5029032;28;20025;-88
2022/03/09 02:37:13;;;;;;;20.58;7.30;;;-4.40;93.70;;;;;;5008499;28;20386;-89
2022/03/09 02:39:39;;;;;;;15.85;7.00;;;-4.20;92.80;;;;;;4992381;28;20040;-88
2022/03/09 02:42:05;;;;;;;14.80;6.20;;;-4.20;92.60;;;;;;4993238;28;20092;-86
2022/03/09 02:44:31;;;;;;;14.95;6.78;;;-4.30;92.10;;;;;;4993074;28;21098;-89
2022/03/09 02:46:57;;;;;;;21.75;7.78;;;-4.40;92.30;;;;;;4975511;28;20042;-88
2022/03/09 02:49:23;;;;;;;18.40;8.23;;;-4.30;92.60;;;;;;4996475;28;20033;-89
2022/03/09 02:51:49;;;;;;;19.90;6.90;;;-4.30;92.40;;;;;;5013032;28;20034;-90
2022/03/09 02:54:15;;;;;;;17.00;8.35;;;-4.30;92.70;;;;;;5027269;28;20546;-90
2022/03/09 02:56:41;;;;;;;20.33;8.18;;;-4.40;92.50;;;;;;4994416;28;20060;-89
2022/03/09 02:59:06;;;;;;;19.65;8.35;;;-4.50;92.50;;;;;;5005942;28;20116;-87
2022/03/09 03:01:32;;;;;;;27.38;7.80;;;-4.60;93.30;;;;;;4981145;28;20125;-89
2022/03/09 03:03:58;;;;;;;12.90;6.88;;;-4.70;93.30;;;;;;4974051;28;20058;-89
2022/03/09 03:06:24;;;;;;;20.60;8.32;;;-4.80;92.90;;;;;;4956157;28;20455;-89
2022/03/09 03:08:50;;;;;;;17.25;7.00;;;-4.90;92.80;;;;;;4972101;28;20378;-89
2022/03/09 03:11:16;;;;;;;17.83;6.70;;;-5.10;92.30;;;;;;4953456;28;20390;-88
2022/03/09 03:13:42;;;;;;;21.13;7.80;;;-5.10;93.00;;;;;;4984991;28;20419;-86
2022/03/09 03:16:09;;;;;;;16.88;7.40;;;-5.20;94.00;;;;;;4971452;28;20070;-89
2022/03/09 03:18:35;;;;;;;26.02;9.23;;;-5.30;93.70;;;;;;4972418;28;20101;-88
2022/03/09 03:21:01;;;;;;;18.60;8.73;;;-5.40;95.10;;;;;;4972927;28;20516;-87
2022/03/09 03:23:30;;;;;;;19.08;7.57;;;-5.20;95.00;;;;;;4972510;28;20030;-90
2022/03/09 03:25:57;;;;;;;18.38;8.20;;;-5.20;95.30;;;;;;4970035;28;20132;-88
2022/03/09 03:28:23;;;;;;;17.05;8.10;;;-5.20;94.10;;;;;;4987434;28;20030;-89
2022/03/09 03:30:50;;;;;;;16.20;7.75;;;-5.40;94.10;;;;;;4971776;28;20502;-88
2022/03/09 03:33:17;;;;;;;18.25;8.68;;;-5.50;93.90;;;;;;4971529;28;20026;-88
2022/03/09 03:35:44;;;;;;;20.70;8.18;;;-5.50;95.00;;;;;;4985144;28;20031;-89
2022/03/09 03:38:10;;;;;;;18.27;7.80;;;-5.60;94.60;;;;;;4971869;28;20030;-88
2022/03/09 03:40:37;;;;;;;20.17;9.65;;;-5.70;96.70;;;;;;4973187;28;20030;-89
2022/03/09 03:43:03;;;;;;;20.00;8.43;;;-5.70;97.50;;;;;;4971880;28;20509;-90
2022/03/09 03:45:29;;;;;;;16.52;7.95;;;-5.50;97.90;;;;;;4972556;28;20470;-87
2022/03/09 03:47:54;;;;;;;19.50;8.40;;;-5.30;97.60;;;;;;4955967;28;20031;-88
2022/03/09 03:50:20;;;;;;;15.82;7.43;;;-5.30;97.60;;;;;;4971284;28;20135;-90
2022/03/09 03:52:46;;;;;;;15.45;7.07;;;-5.30;97.30;;;;;;4966561;28;20085;-86
2022/03/09 03:55:12;;;;;;;14.93;6.32;;;-5.30;97.30;;;;;;4972751;28;20022;-86
2022/03/09 03:57:38;;;;;;;17.95;7.03;;;-5.40;96.90;;;;;;4973217;28;20470;-88
2022/03/09 04:00:06;;;;;;;15.80;7.50;;;-5.50;96.30;;;;;;4987854;28;20121;-88
2022/03/09 04:02:31;;;;;;;15.63;6.85;;;-5.50;96.90;;;;;;4972338;28;20031;-88
2022/03/09 04:04:57;;;;;;;20.98;9.00;;;-5.60;98.70;;;;;;4964750;28;20534;-87
2022/03/09 04:07:23;;;;;;;15.93;7.50;;;-5.60;99.30;;;;;;4971493;28;20027;-89
2022/03/09 04:09:48;;;;;;;20.27;8.25;;;-5.50;99.20;;;;;;4972976;28;20866;-90
2022/03/09 04:12:14;;;;;;;20.05;8.98;;;-5.60;98.30;;;;;;4972897;28;20054;-85
2022/03/09 04:14:40;;;;;;;20.20;8.70;;;-5.70;98.70;;;;;;4972858;28;20063;-88
2022/03/09 04:17:06;;;;;;;18.02;8.75;;;-5.60;99.20;;;;;;4972188;28;20034;-90
2022/03/09 04:19:32;;;;;;;23.98;9.45;;;-5.50;99.00;;;;;;4973163;28;20042;-88
2022/03/09 04:21:57;;;;;;;22.45;8.35;;;-5.50;98.80;;;;;;4973152;28;20417;-87
2022/03/09 04:24:23;;;;;;;16.50;8.25;;;-5.60;99.30;;;;;;4972077;28;20121;-88
2022/03/09 04:26:49;;;;;;;17.50;7.57;;;-5.70;99.20;;;;;;4972491;28;20031;-89
2022/03/09 04:29:14;;;;;;;16.70;7.88;;;-5.80;99.40;;;;;;4970407;28;20027;-87
2022/03/09 04:31:40;;;;;;;19.02;8.52;;;-5.70;99.90;;;;;;4970673;28;20031;-88
2022/03/09 04:34:06;;;;;;;23.23;8.60;;;-5.50;99.90;;;;;;4955554;28;20129;-89
2022/03/09 04:36:32;;;;;;;25.17;9.73;;;-5.50;99.10;;;;;;4971372;28;20082;-88
2022/03/09 04:38:58;;;;;;;22.63;9.20;;;-5.40;98.80;;;;;;4972530;28;20081;-88
2022/03/09 04:41:23;;;;;;;17.27;7.68;;;-5.40;98.60;;;;;;4971828;28;20068;-87
2022/03/09 04:43:49;;;;;;;17.65;8.32;;;-5.40;98.90;;;;;;4971745;28;20070;-87
2022/03/09 04:46:16;;;;;;;16.27;8.95;;;-5.50;98.80;;;;;;4971204;28;20031;-89
2022/03/09 04:48:43;;;;;;;20.77;7.60;;;-5.50;98.60;;;;;;4972564;28;20019;-88
2022/03/09 04:51:09;;;;;;;22.67;9.00;;;-5.60;98.80;;;;;;4972818;28;20463;-89
2022/03/09 04:53:35;;;;;;;20.83;9.63;;;-5.50;99.60;;;;;;4972480;28;20034;-88
2022/03/09 04:56:00;;;;;;;20.38;8.63;;;-5.40;99.40;;;;;;4972838;28;20106;-88
2022/03/09 04:58:26;;;;;;;19.67;8.50;;;-5.50;98.90;;;;;;4972717;28;20038;-82
2022/03/09 05:00:53;;;;;;;15.15;7.68;;;-5.40;99.00;;;;;;4973261;28;20031;-82
2022/03/09 05:03:18;;;;;;;19.13;7.78;;;-5.50;98.90;;;;;;4972789;28;20053;-88
2022/03/09 05:05:44;;;;;;;22.42;8.88;;;-5.40;98.40;;;;;;4970359;28;20034;-86
2022/03/09 05:08:10;;;;;;;16.65;7.93;;;-5.40;98.40;;;;;;4972459;28;20510;-87
2022/03/09 05:10:37;;;;;;;15.95;8.40;;;-5.40;98.80;;;;;;4971170;28;20038;-90
2022/03/09 05:13:03;;;;;;;21.85;8.32;;;-5.50;98.20;;;;;;4972249;28;20033;-89
2022/03/09 05:15:29;;;;;;;17.75;7.82;;;-5.50;99.90;;;;;;4972279;28;20077;-90
2022/03/09 05:17:55;;;;;;;15.07;7.28;;;-5.60;99.40;;;;;;4971159;28;20387;-86
2022/03/09 05:20:21;;;;;;;32.10;8.77;;;-5.70;98.90;;;;;;4972086;28;20114;-87
2022/03/09 05:22:47;;;;;;;20.88;8.35;;;-5.80;99.90;;;;;;4972099;28;20109;-87
2022/03/09 05:25:12;;;;;;;21.95;8.57;;;-5.70;99.90;;;;;;4954379;28;20039;-87
2022/03/09 05:27:38;;;;;;;16.23;8.73;;;-5.90;99.10;;;;;;4962329;28;20032;-87
2022/03/09 05:30:05;;;;;;;20.20;8.43;;;-6.10;99.80;;;;;;4968351;28;20519;-87
2022/03/09 05:32:30;;;;;;;20.35;8.07;;;-6.10;99.90;;;;;;4953172;28;20047;-86
2022/03/09 05:34:56;;;;;;;19.35;8.75;;;-6.20;99.90;;;;;;4971036;28;20587;-88
2022/03/09 05:37:22;;;;;;;31.38;9.77;;;-6.30;99.80;;;;;;4972594;28;20041;-87
2022/03/09 05:39:48;;;;;;;18.35;8.43;;;-6.30;99.70;;;;;;4959226;28;20039;-88
2022/03/09 05:42:14;;;;;;;19.13;8.30;;;-6.40;99.90;;;;;;4961540;28;20058;-88
2022/03/09 05:44:40;;;;;;;21.48;7.20;;;-6.30;99.90;;;;;;4972943;28;20062;-89
2022/03/09 05:47:06;;;;;;;33.03;12.05;;;-6.40;99.90;;;;;;4972869;28;20031;-91
2022/03/09 05:49:31;;;;;;;27.02;10.10;;;-6.30;99.90;;;;;;4973792;28;20030;-87
2022/03/09 05:51:57;;;;;;;22.23;10.27;;;-6.20;99.90;;;;;;4958779;28;20035;-88
2022/03/09 05:54:23;;;;;;;28.25;11.43;;;-6.30;99.90;;;;;;4976287;28;20046;-91
2022/03/09 05:56:49;;;;;;;26.45;11.38;;;-6.30;99.90;;;;;;4976665;28;20089;-87
2022/03/09 05:59:14;;;;;;;23.55;10.02;;;-6.20;99.90;;;;;;4976114;28;20066;-89
2022/03/09 06:01:40;;;;;;;29.20;12.02;;;-6.30;99.90;;;;;;4976954;28;20121;-88
2022/03/09 06:04:06;;;;;;;22.85;10.38;;;-6.30;99.90;;;;;;4976645;28;20105;-87
2022/03/09 06:06:32;;;;;;;27.85;12.10;;;-6.30;99.90;;;;;;4975515;28;20035;-86
2022/03/09 06:08:58;;;;;;;31.13;11.40;;;-6.20;99.90;;;;;;4975315;28;20474;-88
2022/03/09 06:11:24;;;;;;;31.52;13.50;;;-6.10;99.90;;;;;;4975424;28;20117;-86
2022/03/09 06:13:50;;;;;;;24.40;10.98;;;-6.10;99.70;;;;;;4975611;28;20033;-88
2022/03/09 06:16:16;;;;;;;26.63;10.68;;;-6.10;99.90;;;;;;4974374;28;20073;-88
2022/03/09 06:18:41;;;;;;;29.23;10.38;;;-5.90;99.90;;;;;;4974718;28;20067;-87
2022/03/09 06:21:07;;;;;;;27.98;9.48;;;-5.80;99.90;;;;;;4975889;28;20097;-87
2022/03/09 06:23:33;;;;;;;28.60;9.70;;;-5.70;99.90;;;;;;4975164;28;20110;-87
2022/03/09 06:25:59;;;;;;;24.38;9.15;;;-5.60;99.90;;;;;;4973112;28;20442;-88
2022/03/09 06:28:25;;;;;;;21.35;9.30;;;-5.50;99.90;;;;;;4967948;28;20039;-87
2022/03/09 06:30:51;;;;;;;18.38;9.00;;;-5.60;99.90;;;;;;4988484;28;20089;-86
2022/03/09 06:33:17;;;;;;;20.98;8.60;;;-5.50;99.90;;;;;;4989628;28;20027;-87
2022/03/09 06:35:43;;;;;;;33.85;12.20;;;-5.40;99.90;;;;;;4975207;28;20109;-87
2022/03/09 06:38:09;;;;;;;22.73;9.82;;;-5.30;99.90;;;;;;4976253;28;20036;-88
2022/03/09 06:40:34;;;;;;;20.55;9.38;;;-5.20;99.90;;;;;;4967723;28;20142;-87
2022/03/09 06:43:01;;;;;;;22.52;10.35;;;-5.10;99.90;;;;;;4972069;28;20046;-87
2022/03/09 06:45:28;;;;;;;24.70;10.02;;;-4.90;99.90;;;;;;4972825;28;20517;-88
2022/03/09 06:47:54;;;;;;;20.00;9.30;;;-4.70;99.80;;;;;;4974851;28;20118;-89
2022/03/09 06:50:19;;;;;;;24.45;11.00;;;-4.60;98.90;;;;;;4974226;28;20090;-87
2022/03/09 06:52:45;;;;;;;23.85;10.85;;;-4.50;98.40;;;;;;4974266;28;20031;-89
2022/03/09 06:55:12;;;;;;;30.80;10.18;;;-4.40;98.00;;;;;;4972438;28;20497;-87
2022/03/09 06:57:39;;;;;;;28.00;11.15;;;-4.40;98.20;;;;;;4974735;28;20054;-89
2022/03/09 07:00:08;;;;;;;23.30;10.40;;;-4.30;98.10;;;;;;4974837;28;20027;-88
2022/03/09 07:02:34;;;;;;;22.60;10.52;;;-4.20;98.40;;;;;;4972978;28;20039;-88
2022/03/09 07:04:59;;;;;;;25.00;9.60;;;-4.10;98.60;;;;;;4974237;28;20106;-86
2022/03/09 07:07:25;;;;;;;25.17;11.52;;;-4.00;98.20;;;;;;4973808;28;20045;-87
2022/03/09 07:09:51;;;;;;;26.15;11.13;;;-4.00;98.60;;;;;;4972864;28;20034;-87
2022/03/09 07:12:16;;;;;;;19.25;8.95;;;-3.90;97.50;;;;;;4974272;28;20045;-90
2022/03/09 07:14:42;;;;;;;27.33;9.25;;;-3.70;96.80;;;;;;4973684;28;20392;-89
2022/03/09 07:17:08;;;;;;;21.95;10.73;;;-3.60;96.00;;;;;;4956088;28;20494;-90
2022/03/09 07:19:33;;;;;;;20.65;9.23;;;-3.50;95.60;;;;;;4972794;28;20031;-88
2022/03/09 07:21:59;;;;;;;18.67;10.40;;;-3.40;95.00;;;;;;4955859;28;20090;-88
2022/03/09 07:24:25;;;;;;;23.13;9.95;;;-3.30;95.30;;;;;;4956253;28;20043;-89
2022/03/09 07:26:50;;;;;;;21.52;8.57;;;-3.20;94.30;;;;;;4956854;28;20041;-91
2022/03/09 07:29:17;;;;;;;22.25;9.52;;;-3.10;94.40;;;;;;4972162;28;20026;-89
2022/03/09 07:31:42;;;;;;;26.67;9.88;;;-3.10;94.00;;;;;;4955841;28;20042;-89
2022/03/09 07:34:08;;;;;;;25.23;12.07;;;-3.00;93.90;;;;;;4973351;28;20027;-90
2022/03/09 07:36:34;;;;;;;31.23;13.98;;;-2.90;94.60;;;;;;4972137;28;20538;-90
2022/03/09 07:39:00;;;;;;;28.30;13.43;;;-2.80;94.90;;;;;;4956218;28;20126;-90
2022/03/09 07:41:26;;;;;;;35.50;12.00;;;-2.60;94.50;;;;;;4972937;28;20089;-89
2022/03/09 07:43:51;;;;;;;32.72;12.27;;;-2.60;94.00;;;;;;4972782;28;20128;-87
2022/03/09 07:46:17;;;;;;;33.50;13.57;;;-2.30;93.30;;;;;;4971289;28;20038;-86
2022/03/09 07:48:43;;;;;;;26.83;11.25;;;-2.10;93.20;;;;;;4957263;28;20130;-88
2022/03/09 07:51:09;;;;;;;28.33;12.35;;;-1.90;92.80;;;;;;4987966;28;20386;-87
2022/03/09 07:53:34;;;;;;;26.42;11.75;;;-1.90;92.70;;;;;;4972203;28;20019;-89
2022/03/09 07:56:00;;;;;;;32.33;11.50;;;-1.80;92.10;;;;;;4939493;28;20043;-89
2022/03/09 07:58:26;;;;;;;24.25;10.88;;;-1.60;91.50;;;;;;4971402;28;20038;-90
2022/03/09 08:00:51;;;;;;;27.40;12.23;;;-1.50;91.10;;;;;;4971046;28;20037;-89
2022/03/09 08:03:17;;;;;;;23.15;10.80;;;-1.30;90.40;;;;;;4971215;28;20066;-92
2022/03/09 08:05:44;;;;;;;30.83;11.77;;;-1.00;89.50;;;;;;4969978;28;20558;-91
2022/03/09 08:08:10;;;;;;;25.77;11.45;;;-1.10;87.90;;;;;;4972604;28;20110;-91
2022/03/09 08:10:36;;;;;;;26.17;11.05;;;-0.90;83.90;;;;;;4972599;28;20018;-88
2022/03/09 08:13:02;;;;;;;20.23;9.43;;;-0.80;86.50;;;;;;4954700;28;20023;-89
2022/03/09 08:15:28;;;;;;;22.10;9.05;;;-0.60;83.70;;;;;;4972551;28;20023;-89
2022/03/09 08:17:53;;;;;;;25.85;11.07;;;-0.50;83.70;;;;;;4962211;28;20024;-87
2022/03/09 08:20:19;;;;;;;26.45;10.63;;;-0.40;82.50;;;;;;4953383;28;20497;-88
2022/03/09 08:22:45;;;;;;;20.92;10.45;;;-0.30;85.10;;;;;;4958526;28;20023;-89
2022/03/09 08:25:11;;;;;;;24.38;11.38;;;-0.20;84.70;;;;;;4971296;28;20430;-90
2022/03/09 08:27:36;;;;;;;23.98;12.70;;;-0.10;82.40;;;;;;4956067;28;20023;-89
2022/03/09 08:30:04;;;;;;;24.42;11.02;;;0.10;83.20;;;;;;4971383;28;20094;-87
2022/03/09 08:32:30;;;;;;;26.42;11.25;;;0.30;82.70;;;;;;4972106;28;20034;-90
2022/03/09 08:34:55;;;;;;;29.08;11.80;;;0.40;81.60;;;;;;4987116;28;20033;-90
2022/03/09 08:37:21;;;;;;;22.20;12.07;;;0.60;80.90;;;;;;4970961;28;20035;-90
2022/03/09 08:39:48;;;;;;;28.00;12.27;;;0.80;80.10;;;;;;4971749;28;20030;-89
2022/03/09 08:42:15;;;;;;;24.83;13.20;;;0.90;77.20;;;;;;4951684;29;20491;-90
2022/03/09 08:44:41;;;;;;;24.08;12.80;;;1.00;78.00;;;;;;4955610;28;20197;-89
2022/03/09 08:47:07;;;;;;;23.42;11.02;;;1.20;76.20;;;;;;4971452;28;20038;-89
2022/03/09 08:49:35;;;;;;;28.45;12.95;;;1.40;75.30;;;;;;4970375;28;20023;-90
2022/03/09 08:52:01;;;;;;;23.10;11.13;;;1.50;73.60;;;;;;4965890;28;20031;-89
2022/03/09 08:54:27;;;;;;;23.55;10.35;;;1.70;74.60;;;;;;4960732;28;20031;-90
2022/03/09 08:56:52;;;;;;;26.73;11.43;;;1.90;75.40;;;;;;4952474;28;20023;-90
2022/03/09 08:59:18;;;;;;;26.83;13.50;;;2.10;74.20;;;;;;4968134;28;20050;-92
2022/03/09 09:01:44;;;;;;;31.67;12.05;;;2.00;74.60;;;;;;4970757;28;20478;-90
2022/03/09 09:04:09;;;;;;;28.58;13.32;;;2.20;73.00;;;;;;4959825;28;20059;-91
2022/03/09 09:06:35;;;;;;;32.85;13.80;;;2.40;72.30;;;;;;4963087;28;20644;-89
2022/03/09 09:09:00;;;;;;;26.67;13.70;;;2.50;70.30;;;;;;4970761;28;20082;-89
2022/03/09 09:11:26;;;;;;;25.73;13.35;;;2.60;70.60;;;;;;4952241;28;20490;-89
2022/03/09 09:13:52;;;;;;;31.70;13.18;;;2.80;70.90;;;;;;4969394;28;20093;-90
2022/03/09 09:16:17;;;;;;;32.38;15.15;;;3.00;69.10;;;;;;4966149;28;20266;-89
2022/03/09 09:18:43;;;;;;;32.30;14.98;;;2.90;67.20;;;;;;4962511;28;20087;-88
2022/03/09 09:21:10;;;;;;;34.63;15.75;;;3.10;68.30;;;;;;4969459;28;20066;-89
2022/03/09 09:23:38;;;;;;;28.35;13.82;;;3.30;68.50;;;;;;4968584;28;20035;-89
2022/03/09 09:26:04;;;;;;;33.25;15.52;;;3.50;67.00;;;;;;4972851;28;20093;-89
2022/03/09 09:28:30;;;;;;;36.63;14.65;;;3.60;65.20;;;;;;4973274;28;20032;-90
2022/03/09 09:30:56;;;;;;;28.90;14.15;;;3.70;66.10;;;;;;4973896;28;20221;-89
2022/03/09 09:33:21;;;;;;;30.40;13.85;;;3.80;64.70;;;;;;4974205;28;20042;-89
2022/03/09 09:35:48;;;;;;;31.80;14.73;;;3.90;65.10;;;;;;4974096;28;20034;-89
2022/03/09 09:38:13;;;;;;;29.23;14.00;;;4.00;64.40;;;;;;4973774;28;20162;-89
2022/03/09 09:40:41;;;;;;;26.70;15.07;;;4.20;65.50;;;;;;4972636;28;20113;-89
2022/03/09 09:43:10;;;;;;;32.20;15.82;;;4.40;64.80;;;;;;4974601;28;20061;-88
2022/03/09 09:45:35;;;;;;;31.73;17.15;;;4.50;61.20;;;;;;4972698;28;20063;-90
2022/03/09 09:48:07;;;;;;;26.95;13.65;;;4.70;61.20;;;;;;4973860;28;20118;-90
2022/03/09 09:50:33;;;;;;;31.88;15.38;;;4.80;60.00;;;;;;4954849;28;20483;-88
2022/03/09 09:53:06;;;;;;;28.00;14.80;;;4.90;59.20;;;;;;4973712;28;20046;-90
2022/03/09 09:55:32;;;;;;;30.83;13.77;;;5.00;58.80;;;;;;4973908;28;20023;-89
2022/03/09 09:57:58;;;;;;;31.27;14.18;;;5.10;58.50;;;;;;4973524;28;20085;-88
2022/03/09 10:00:24;;;;;;;32.40;15.98;;;5.50;58.50;;;;;;4971147;28;20070;-89
2022/03/09 10:02:51;;;;;;;30.15;14.50;;;5.30;55.60;;;;;;4973402;28;20153;-90
2022/03/09 10:05:18;;;;;;;24.83;12.27;;;5.40;58.90;;;;;;4967607;28;20027;-90
2022/03/09 10:08:03;;;;;;;26.95;12.90;;;5.40;59.00;;;;;;4967356;28;20030;-90
2022/03/09 10:10:31;;;;;;;31.25;14.45;;;5.40;59.10;;;;;;4972825;28;20134;-90
2022/03/09 10:13:33;;;;;;;25.88;12.00;;;5.60;57.80;;;;;;4973672;28;20035;-87
2022/03/09 10:16:10;;;;;;;29.88;13.77;;;5.70;56.70;;;;;;4962018;28;20089;-88
2022/03/09 10:18:36;;;;;;;31.90;13.57;;;5.70;56.80;;;;;;4973512;28;20026;-87
2022/03/09 10:21:30;;;;;;;23.95;13.80;;;5.60;57.00;;;;;;4973612;28;20485;-89
2022/03/09 10:24:01;;;;;;;32.10;16.33;;;5.60;58.00;;;;;;4971348;28;20046;-88
2022/03/09 10:26:31;;;;;;;28.52;15.02;;;5.40;56.00;;;;;;4972555;28;20533;-86
2022/03/09 10:29:00;;;;;;;29.95;15.40;;;5.70;56.90;;;;;;4964218;28;20109;-89
2022/03/09 10:31:38;;;;;;;28.25;16.90;;;5.80;58.60;;;;;;4971195;28;20038;-88
2022/03/09 10:34:15;;;;;;;30.60;15.32;;;5.80;55.00;;;;;;4973017;28;20043;-88
2022/03/09 10:37:04;;;;;;;35.67;15.68;;;5.90;57.00;;;;;;4971732;28;20031;-86
2022/03/09 10:39:36;;;;;;;37.70;16.95;;;6.20;55.30;;;;;;4971840;28;20066;-88
2022/03/09 10:42:03;;;;;;;32.72;18.52;;;6.30;55.50;;;;;;4972557;28;20117;-89
2022/03/09 10:44:46;;;;;;;27.77;14.57;;;6.50;55.50;;;;;;4971648;28;20067;-90
2022/03/09 10:47:27;;;;;;;30.73;16.63;;;6.70;55.30;;;;;;4972425;28;20041;-89
2022/03/09 10:49:53;;;;;;;32.80;16.85;;;6.60;53.50;;;;;;4972491;28;20019;-88
2022/03/09 10:52:19;;;;;;;26.05;14.77;;;6.80;53.10;;;;;;4970898;28;20502;-88
2022/03/09 10:54:44;;;;;;;40.58;17.58;;;6.90;51.40;;;;;;4969646;28;20387;-88
2022/03/09 10:57:12;;;;;;;31.77;17.00;;;7.30;52.70;;;;;;4969436;28;20114;-87
2022/03/09 10:59:52;;;;;;;36.10;18.23;;;7.90;49.60;;;;;;4972244;28;20098;-89
2022/03/09 11:02:19;;;;;;;39.17;18.25;;;8.40;48.50;;;;;;4972163;28;20038;-89
2022/03/09 11:05:09;;;;;;;30.67;17.08;;;8.90;45.30;;;;;;4985727;28;20085;-88
2022/03/09 11:07:38;;;;;;;30.73;16.63;;;8.80;45.70;;;;;;4978717;28;20126;-86
2022/03/09 11:10:09;;;;;;;34.03;15.73;;;8.90;44.70;;;;;;4976745;28;20030;-87
2022/03/09 11:12:36;;;;;;;32.55;17.92;;;9.40;43.50;;;;;;4972949;28;20394;-83
2022/03/09 11:15:03;;;;;;;35.90;17.05;;;9.40;42.40;;;;;;4972924;28;20038;-85
2022/03/09 11:17:29;;;;;;;33.45;17.98;;;9.80;41.90;;;;;;4973547;28;20097;-84
2022/03/09 11:19:55;;;;;;;32.45;17.90;;;9.90;42.10;;;;;;4976419;28;20065;-86
2022/03/09 11:22:20;;;;;;;35.45;17.95;;;9.90;41.30;;;;;;4975468;28;20494;-85
2022/03/09 11:24:48;;;;;;;31.27;18.05;;;9.90;41.00;;;;;;4971953;28;20501;-85
2022/03/09 11:27:15;;;;;;;32.80;18.60;;;11.10;38.50;;;;;;4978176;28;20041;-85
2022/03/09 11:29:42;;;;;;;37.75;18.55;;;10.70;36.80;;;;;;4969856;28;20029;-85
2022/03/09 11:32:09;;;;;;;33.90;19.25;;;9.90;36.70;;;;;;4959086;28;20373;-85
2022/03/09 11:34:48;;;;;;;34.97;21.10;;;10.40;37.60;;;;;;4966916;28;20019;-85
2022/03/09 11:37:16;;;;;;;42.63;19.95;;;10.30;39.70;;;;;;4952466;28;20027;-84
2022/03/09 11:39:47;;;;;;;36.28;20.38;;;10.50;39.30;;;;;;4970723;28;20034;-84
2022/03/09 11:42:22;;;;;;;35.92;18.20;;;10.60;38.10;;;;;;4967543;28;20090;-84
2022/03/09 11:44:49;;;;;;;34.42;18.27;;;11.60;36.90;;;;;;4964796;28;20445;-83
2022/03/09 11:47:16;;;;;;;31.65;19.60;;;12.30;34.80;;;;;;4968143;28;20088;-83
2022/03/09 11:49:42;;;;;;;36.22;20.10;;;12.20;34.70;;;;;;4970613;28;20029;-82
2022/03/09 11:52:16;;;;;;;31.45;18.15;;;11.90;33.70;;;;;;4968871;28;20031;-82
2022/03/09 11:54:41;;;;;;;39.08;19.58;;;13.40;32.50;;;;;;4967253;28;20548;-82
2022/03/09 11:57:08;;;;;;;35.65;19.60;;;13.40;31.10;;;;;;4970153;28;20023;-80
2022/03/09 11:59:33;;;;;;;31.95;19.40;;;13.90;29.60;;;;;;4984852;28;20374;-81
2022/03/09 12:02:00;;;;;;;30.83;19.13;;;12.90;31.10;;;;;;4967158;28;20039;-81
2022/03/09 12:04:50;;;;;;;34.60;19.65;;;13.20;30.80;;;;;;4969195;28;20039;-80
2022/03/09 12:07:28;;;;;;;33.05;17.80;;;13.50;30.50;;;;;;4969529;28;20035;-80
2022/03/09 12:10:11;;;;;;;33.08;19.83;;;13.90;29.10;;;;;;4969760;28;20027;-80
2022/03/09 12:12:58;;;;;;;27.80;17.35;;;13.20;28.60;;;;;;4969342;28;20029;-80
2022/03/09 12:15:23;;;;;;;32.30;19.23;;;14.30;29.70;;;;;;4970344;28;20035;-80
2022/03/09 12:17:49;;;;;;;30.65;18.73;;;14.70;27.40;;;;;;4971294;28;20497;-80
2022/03/09 12:20:29;;;;;;;29.65;17.77;;;14.10;27.20;;;;;;4969199;28;20030;-80
2022/03/09 12:22:55;;;;;;;30.05;19.42;;;14.00;28.80;;;;;;4965487;28;20031;-80
2022/03/09 12:25:40;;;;;;;30.20;18.15;;;14.60;26.60;;;;;;4965833;28;20085;-80
2022/03/09 12:28:24;;;;;;;28.40;17.52;;;14.90;27.20;;;;;;4966988;28;20149;-80
2022/03/09 12:30:52;;;;;;;31.55;18.77;;;15.50;25.30;;;;;;4968481;28;20110;-80
2022/03/09 12:33:33;;;;;;;38.83;17.40;;;15.20;24.70;;;;;;4968523;28;20417;-80
2022/03/09 12:36:12;;;;;;;28.05;17.35;;;14.60;26.50;;;;;;4968125;28;20114;-80